Terminal Aerodrome Forecast
Issued by NWS Shreveport, LA

Home | Current Version | Previous Version | Text Only | Print | Product List | Glossary On
Versions: 1 2 3 4 5 6 7 8 9 10 11 12 13 14 15 16 17 18 19 20 21 22 23 24 25
766
FTUS44 KSHV 300520
TAFTXK
TAF
KTXK 300520Z 3006/3106 VRB06KT P6SM VCTS BKN050CB OVC100
      TEMPO 3006/3009 5SM -TSRA BR OVC040CB
     FM300900 VRB04KT P6SM SCT050 BKN120 BKN250
     FM301400 23007KT P6SM SCT180 SCT250
     FM301600 23009KT P6SM SCT035 SCT250
     FM302000 22007KT P6SM VCTS SCT045CB SCT250
     FM310200 VRB03KT P6SM FEW050 SCT250=

USA.gov is the U.S. government's official web portal to all federal, state and local government web resources and services.